createdAt,value
2018-12-03T00:03:38.864Z,81.23
2018-12-03T00:07:42.522Z,81.29
2018-12-03T00:11:46.101Z,81.71
2018-12-03T00:15:51.608Z,81.44
2018-12-03T00:19:59.520Z,81.70
2018-12-03T00:24:04.909Z,81.86
2018-12-03T00:28:11.247Z,81.81
2018-12-03T00:32:23.228Z,81.47
2018-12-03T00:36:34.750Z,81.40
2018-12-03T00:40:46.969Z,81.54
2018-12-03T00:44:54.779Z,81.44
2018-12-03T00:49:02.442Z,81.62
2018-12-03T00:53:06.526Z,81.35
2018-12-03T00:57:17.070Z,81.87
2018-12-03T01:01:30.089Z,81.65
2018-12-03T01:05:35.574Z,81.45
2018-12-03T01:09:41.023Z,81.34
2018-12-03T01:13:48.012Z,81.36
2018-12-03T01:17:58.941Z,81.61
2018-12-03T01:22:09.967Z,82.00
2018-12-03T01:26:13.555Z,81.74
2018-12-03T01:30:23.701Z,81.58
2018-12-03T01:34:39.515Z,81.20
2018-12-03T01:38:54.228Z,81.64
2018-12-03T01:43:02.852Z,81.57
2018-12-03T01:47:17.108Z,81.35
2018-12-03T01:51:25.332Z,81.71
2018-12-03T01:55:30.616Z,81.17
2018-12-03T01:59:34.153Z,81.63
2018-12-03T02:03:39.024Z,81.71
2018-12-03T02:07:42.561Z,80.97
2018-12-03T02:11:57.631Z,80.68
2018-12-03T02:16:02.465Z,80.83
2018-12-03T02:20:14.683Z,81.03
2018-12-03T02:24:22.696Z,80.85
2018-12-03T02:28:30.882Z,81.35
2018-12-03T02:32:34.456Z,80.93
2018-12-03T02:36:42.519Z,81.87
2018-12-03T02:40:57.571Z,81.13
2018-12-03T02:45:03.425Z,81.22
2018-12-03T02:49:14.066Z,81.73
2018-12-03T02:53:18.416Z,81.26
2018-12-03T02:57:23.170Z,81.14
2018-12-03T03:01:35.067Z,82.00
2018-12-03T03:05:52.269Z,81.77
2018-12-03T03:10:04.883Z,82.29
2018-12-03T03:14:13.323Z,81.31
2018-12-03T03:18:22.352Z,82.29
2018-12-03T03:22:32.512Z,82.36
2018-12-03T03:32:11.713Z,82.25
2018-12-03T03:55:18.714Z,82.20
2018-12-03T04:04:55.293Z,82.43
2018-12-03T04:09:02.841Z,82.38
2018-12-03T04:13:31.845Z,82.19
2018-12-03T04:18:35.495Z,82.43
2018-12-03T04:22:51.588Z,82.37
2018-12-03T04:27:21.703Z,82.61
2018-12-03T04:31:35.551Z,82.57
2018-12-03T04:36:09.274Z,82.60
2018-12-03T04:40:23.370Z,82.55
2018-12-03T04:44:29.397Z,82.65
2018-12-03T04:48:46.114Z,82.64
2018-12-03T05:02:19.388Z,82.87
2018-12-03T05:06:26.373Z,82.87
2018-12-03T05:10:31.991Z,82.76
2018-12-03T05:19:06.979Z,82.93
2018-12-03T05:27:42.276Z,82.98
2018-12-03T05:31:47.165Z,83.01
2018-12-03T05:35:52.063Z,83.03
2018-12-03T05:39:57.030Z,83.01
2018-12-03T05:48:12.684Z,82.89
2018-12-03T05:52:17.633Z,82.84
2018-12-03T05:56:22.779Z,82.74
2018-12-03T06:00:28.002Z,82.75
2018-12-03T06:04:32.986Z,82.88
2018-12-03T06:08:37.931Z,82.94
2018-12-03T06:12:43.328Z,83.21
2018-12-03T06:17:07.366Z,83.01
2018-12-03T06:21:12.407Z,83.46
2018-12-03T06:25:36.148Z,83.20
2018-12-03T06:29:41.164Z,83.28
2018-12-03T06:33:46.403Z,83.27
2018-12-03T06:37:51.971Z,83.23
2018-12-03T06:41:57.001Z,83.17
2018-12-03T06:46:01.957Z,83.11
2018-12-03T06:50:08.734Z,83.01
2018-12-03T06:54:13.683Z,83.02
2018-12-03T06:58:37.731Z,83.21
2018-12-03T07:03:01.531Z,83.29
2018-12-03T07:07:06.849Z,83.28
2018-12-03T07:11:12.546Z,83.26
2018-12-03T07:15:23.768Z,83.14
2018-12-03T07:19:28.794Z,83.04
2018-12-03T07:23:33.784Z,82.82
2018-12-03T07:27:38.774Z,82.71
2018-12-03T07:31:43.716Z,82.76
2018-12-03T07:35:48.717Z,82.69
2018-12-03T07:40:12.935Z,82.80
2018-12-03T07:44:18.109Z,83.03
2018-12-03T07:48:23.032Z,82.93
2018-12-03T07:52:28.499Z,82.90
2018-12-03T07:56:34.276Z,83.14
2018-12-03T08:00:58.147Z,83.25
2018-12-03T08:05:03.308Z,83.39
2018-12-03T08:09:13.443Z,83.38
2018-12-03T08:13:19.339Z,83.43
2018-12-03T08:17:24.495Z,83.44
2018-12-03T08:21:29.594Z,83.51
2018-12-03T08:25:34.506Z,83.87
2018-12-03T08:29:39.914Z,83.89
2018-12-03T08:33:45.069Z,83.52
2018-12-03T08:37:50.239Z,83.40
2018-12-03T08:41:55.388Z,83.49
2018-12-03T08:54:48.211Z,83.34
2018-12-03T08:58:53.528Z,83.36
2018-12-03T09:03:21.370Z,83.53
2018-12-03T09:07:26.793Z,83.41
2018-12-03T09:11:31.941Z,83.33
2018-12-03T09:15:36.860Z,83.60
2018-12-03T09:19:44.112Z,83.90
2018-12-03T09:24:01.455Z,83.68
2018-12-03T09:28:07.948Z,83.43
2018-12-03T09:32:12.916Z,83.44
2018-12-03T09:36:18.647Z,83.68
2018-12-03T09:40:25.764Z,83.72
2018-12-03T09:44:31.508Z,83.64
2018-12-03T09:48:55.291Z,83.67
2018-12-03T09:58:28.865Z,83.69
2018-12-03T10:02:33.967Z,84.07
2018-12-03T10:11:23.919Z,83.70
2018-12-03T10:15:31.187Z,83.78
2018-12-03T10:19:36.115Z,83.93
2018-12-03T10:23:41.075Z,83.89
2018-12-03T10:27:46.958Z,83.85
2018-12-03T10:31:51.870Z,83.78
2018-12-03T10:35:56.742Z,83.72
2018-12-03T10:40:01.671Z,83.79
2018-12-03T10:44:07.933Z,83.88
2018-12-03T10:48:12.835Z,84.13
2018-12-03T10:52:22.531Z,84.02
2018-12-03T10:56:27.751Z,83.85
2018-12-03T11:00:51.611Z,84.06
2018-12-03T11:05:15.212Z,84.02
2018-12-03T11:09:20.292Z,83.70
2018-12-03T11:13:25.204Z,83.55
2018-12-03T11:17:33.435Z,83.62
2018-12-03T11:21:38.287Z,83.60
2018-12-03T11:25:44.344Z,83.71
2018-12-03T11:29:49.240Z,83.61
2018-12-03T11:33:54.117Z,83.68
2018-12-03T11:38:36.709Z,83.72
2018-12-03T11:42:41.607Z,83.76
2018-12-03T11:46:46.429Z,83.86
2018-12-03T11:50:51.432Z,83.77
2018-12-03T11:54:56.329Z,83.97
2018-12-03T11:59:01.141Z,83.94
2018-12-03T12:03:06.267Z,84.17
2018-12-03T12:07:29.992Z,84.03
2018-12-03T12:11:34.899Z,83.89
2018-12-03T12:15:39.709Z,83.86
2018-12-03T12:19:44.582Z,83.83
2018-12-03T12:23:49.461Z,84.13
2018-12-03T12:27:56.535Z,83.95
2018-12-03T12:32:01.400Z,83.74
2018-12-03T12:36:06.338Z,83.89
2018-12-03T12:40:12.755Z,84.00
2018-12-03T12:44:17.670Z,83.94
2018-12-03T12:48:22.492Z,83.87
2018-12-03T12:52:27.402Z,83.96
2018-12-03T12:56:32.293Z,84.16
2018-12-03T13:00:37.212Z,84.37
2018-12-03T13:04:42.089Z,84.56
2018-12-03T13:08:47.291Z,84.50
2018-12-03T13:12:53.588Z,84.51
2018-12-03T13:16:58.967Z,84.69
2018-12-03T13:21:03.832Z,84.80
2018-12-03T13:25:25.874Z,84.77
2018-12-03T13:29:30.780Z,84.69
2018-12-03T13:33:35.632Z,84.64
2018-12-03T13:37:40.555Z,84.40
2018-12-03T13:41:45.393Z,84.30
2018-12-03T13:45:50.281Z,84.21
2018-12-03T13:49:55.232Z,84.61
2018-12-03T13:54:00.180Z,83.98
2018-12-03T13:58:05.079Z,83.71
2018-12-03T14:02:10.564Z,83.87
2018-12-03T14:06:35.996Z,84.00
2018-12-03T14:11:18.573Z,83.84
2018-12-03T14:16:01.113Z,83.58
2018-12-03T14:20:06.818Z,83.32
2018-12-03T14:24:30.615Z,83.33
2018-12-03T14:28:54.955Z,83.54
2018-12-03T14:32:59.990Z,84.20
2018-12-03T14:37:04.863Z,83.84
2018-12-03T14:41:09.822Z,83.59
2018-12-03T14:45:33.980Z,83.49
2018-12-03T14:49:38.843Z,83.38
2018-12-03T14:53:43.897Z,83.43
2018-12-03T14:57:48.829Z,83.42
2018-12-03T15:01:53.675Z,83.47
2018-12-03T15:06:18.994Z,83.42
2018-12-03T15:10:23.983Z,83.43
2018-12-03T15:14:28.844Z,83.52
2018-12-03T15:18:33.889Z,83.49
2018-12-03T15:22:39.229Z,83.63
2018-12-03T15:26:44.149Z,83.71
2018-12-03T15:30:49.001Z,83.56
2018-12-03T15:34:53.873Z,83.43
2018-12-03T15:38:59.232Z,83.64
2018-12-03T15:43:04.036Z,83.96
2018-12-03T15:47:09.836Z,83.39
2018-12-03T15:51:14.955Z,83.07
2018-12-03T15:55:19.819Z,82.79
2018-12-03T15:59:24.690Z,82.81
2018-12-03T16:03:29.589Z,82.86
2018-12-03T16:07:34.474Z,82.95
2018-12-03T16:11:40.714Z,82.77
2018-12-03T16:15:45.591Z,82.84
2018-12-03T16:19:50.481Z,82.56
2018-12-03T16:23:55.378Z,82.64
2018-12-03T16:28:00.282Z,82.34
2018-12-03T16:32:05.168Z,82.15
2018-12-03T16:36:10.064Z,82.31
2018-12-03T16:40:51.114Z,82.33
2018-12-03T16:44:56.069Z,82.18
2018-12-03T16:49:01.040Z,82.18
2018-12-03T16:57:17.126Z,82.37
2018-12-03T17:01:22.084Z,82.61
2018-12-03T17:05:26.882Z,82.53
2018-12-03T17:09:31.989Z,82.57
2018-12-03T17:13:37.456Z,82.68
2018-12-03T17:17:42.293Z,82.78
2018-12-03T17:22:24.825Z,82.90
2018-12-03T17:26:29.746Z,82.92
2018-12-03T17:30:34.676Z,82.91
2018-12-03T17:34:53.772Z,82.65
2018-12-03T17:38:46.427Z,82.45
2018-12-03T17:42:51.249Z,82.50
2018-12-03T17:46:56.086Z,82.59
2018-12-03T17:51:01.117Z,82.52
2018-12-03T17:55:06.547Z,82.62
2018-12-03T17:59:11.687Z,82.62
2018-12-03T18:03:18.419Z,82.71
2018-12-03T18:07:23.373Z,82.90
2018-12-03T18:11:28.359Z,82.83
2018-12-03T18:15:33.262Z,82.82
2018-12-03T18:19:38.069Z,82.75
2018-12-03T18:23:43.220Z,82.75
2018-12-03T18:27:48.025Z,82.68
2018-12-03T18:31:53.413Z,82.74
2018-12-03T18:35:58.219Z,83.05
2018-12-03T18:40:03.386Z,82.83
2018-12-03T18:44:08.295Z,83.04
2018-12-03T18:48:14.391Z,83.08
2018-12-03T18:52:20.707Z,83.15
2018-12-03T18:56:25.667Z,83.15
2018-12-03T19:00:30.647Z,83.32
2018-12-03T19:04:35.562Z,83.39
2018-12-03T19:08:40.906Z,83.49
2018-12-03T19:12:46.074Z,83.47
2018-12-03T19:16:50.826Z,83.61
2018-12-03T19:20:55.795Z,83.72
2018-12-03T19:25:00.652Z,83.74
2018-12-03T19:29:05.596Z,83.94
2018-12-03T19:33:10.401Z,83.83
2018-12-03T19:37:15.326Z,84.07
2018-12-03T19:41:20.213Z,84.41
2018-12-03T19:45:25.071Z,84.31
2018-12-03T19:53:42.285Z,84.34
2018-12-03T19:57:51.276Z,84.11
2018-12-03T20:01:56.290Z,84.12
2018-12-03T20:06:01.447Z,84.19
2018-12-03T20:10:07.207Z,84.32
2018-12-03T20:14:12.431Z,84.70
2018-12-03T20:18:17.619Z,84.70
2018-12-03T20:22:23.418Z,84.63
2018-12-03T20:26:34.267Z,84.72
2018-12-03T20:31:16.944Z,84.86
2018-12-03T20:35:33.706Z,84.87
2018-12-03T20:40:16.275Z,84.73
2018-12-03T20:44:44.990Z,84.60
2018-12-03T20:49:14.130Z,84.38
2018-12-03T20:53:23.507Z,84.42
2018-12-03T20:57:28.321Z,84.47
2018-12-03T21:01:35.160Z,84.38
2018-12-03T21:05:40.030Z,84.33
2018-12-03T21:09:45.212Z,84.35
2018-12-03T21:13:50.170Z,84.39
2018-12-03T21:17:55.251Z,84.49
2018-12-03T21:22:00.644Z,84.47
2018-12-03T21:26:05.493Z,84.48
2018-12-03T21:30:11.556Z,84.46
2018-12-03T21:34:16.407Z,84.52
2018-12-03T21:38:21.491Z,84.46
2018-12-03T21:42:26.356Z,84.49
2018-12-03T21:46:31.230Z,84.55
2018-12-03T21:50:36.129Z,84.70
2018-12-03T21:59:12.258Z,84.74
2018-12-03T22:03:17.114Z,84.49
2018-12-03T22:11:52.855Z,84.20
2018-12-03T22:16:16.596Z,84.18
2018-12-03T22:20:21.373Z,84.11
2018-12-03T22:24:26.220Z,84.13
2018-12-03T22:28:31.045Z,84.00
2018-12-03T22:32:35.955Z,83.85
2018-12-03T22:36:40.738Z,83.92
2018-12-03T22:40:45.602Z,84.01
2018-12-03T22:49:02.922Z,84.01
2018-12-03T22:53:07.792Z,83.96
2018-12-03T22:57:12.679Z,84.01
2018-12-03T23:01:23.864Z,83.95
2018-12-03T23:05:28.803Z,83.76
2018-12-03T23:09:33.716Z,83.75
2018-12-03T23:13:38.560Z,83.82
2018-12-03T23:17:43.423Z,83.89
2018-12-03T23:21:48.252Z,83.83
2018-12-03T23:25:53.051Z,83.85
2018-12-03T23:29:57.931Z,83.91
2018-12-03T23:34:02.786Z,84.02
2018-12-03T23:38:07.625Z,83.96
2018-12-03T23:42:12.458Z,83.92
2018-12-03T23:46:17.379Z,83.97
2018-12-03T23:50:22.623Z,84.04
2018-12-03T23:54:27.498Z,84.02
2018-12-03T23:58:32.379Z,84.00
